createdAt,value
2023-01-01T00:00:46.961Z,4.03
2023-01-01T00:03:16.504Z,3.60
2023-01-01T00:05:44.324Z,3.03
2023-01-01T00:08:12.177Z,2.42
2023-01-01T00:10:43.250Z,3.17
2023-01-01T00:13:14.672Z,3.33
2023-01-01T00:15:43.248Z,2.80
2023-01-01T00:18:11.195Z,3.42
2023-01-01T00:20:40.445Z,3.33
2023-01-01T00:23:08.778Z,5.60
2023-01-01T00:25:36.671Z,4.13
2023-01-01T00:28:04.655Z,5.57
2023-01-01T00:30:33.229Z,7.85
2023-01-01T00:33:01.204Z,5.78
2023-01-01T00:35:29.394Z,7.25
2023-01-01T00:37:59.225Z,3.33
2023-01-01T00:40:27.372Z,3.65
2023-01-01T00:42:55.294Z,4.70
2023-01-01T00:45:24.118Z,3.28
2023-01-01T00:47:53.467Z,2.30
2023-01-01T00:50:21.797Z,3.47
2023-01-01T00:52:50.498Z,2.47
2023-01-01T00:55:20.438Z,3.08
2023-01-01T00:57:48.234Z,3.40
2023-01-01T01:00:17.475Z,2.03
2023-01-01T01:02:45.593Z,2.85
2023-01-01T01:05:13.634Z,2.60
2023-01-01T01:10:32.708Z,3.20
2023-01-01T01:13:00.519Z,2.20
2023-01-01T01:15:28.392Z,2.35
2023-01-01T01:17:56.774Z,3.30
2023-01-01T01:20:24.616Z,2.90
2023-01-01T01:22:52.418Z,2.35
2023-01-01T01:25:20.411Z,2.25
2023-01-01T01:27:49.853Z,2.65
2023-01-01T01:30:18.059Z,2.15
2023-01-01T01:32:46.607Z,2.67
2023-01-01T01:35:14.455Z,3.05
2023-01-01T01:37:42.234Z,2.53
2023-01-01T01:40:11.780Z,2.20
2023-01-01T01:42:39.638Z,1.98
2023-01-01T01:45:12.789Z,1.67
2023-01-01T01:47:47.756Z,2.25
2023-01-01T01:50:21.252Z,2.13
2023-01-01T01:53:02.628Z,2.60
2023-01-01T01:55:33.713Z,2.22
2023-01-01T01:58:02.022Z,1.67
2023-01-01T02:00:31.676Z,1.70
2023-01-01T02:03:05.942Z,1.98
2023-01-01T02:05:35.256Z,2.33
2023-01-01T02:08:05.222Z,2.45
2023-01-01T02:10:34.159Z,2.60
2023-01-01T02:13:02.297Z,2.28
2023-01-01T02:15:36.587Z,2.60
2023-01-01T02:18:11.650Z,2.10
2023-01-01T02:20:46.800Z,2.95
2023-01-01T02:23:29.275Z,2.10
2023-01-01T02:26:12.888Z,2.50
2023-01-01T02:28:52.129Z,2.20
2023-01-01T02:31:26.066Z,2.58
2023-01-01T02:33:57.909Z,2.05
2023-01-01T02:36:28.447Z,2.38
2023-01-01T02:38:59.243Z,1.90
2023-01-01T02:41:32.183Z,1.95
2023-01-01T02:46:33.315Z,2.88
2023-01-01T02:49:07.928Z,2.58
2023-01-01T02:51:51.281Z,3.25
2023-01-01T02:54:26.939Z,2.70
2023-01-01T02:57:02.602Z,2.13
2023-01-01T02:59:59.619Z,1.92
2023-01-01T03:02:38.218Z,2.63
2023-01-01T03:05:12.141Z,6.90
2023-01-01T03:07:47.231Z,2.60
2023-01-01T03:10:20.228Z,2.28
2023-01-01T03:12:57.492Z,2.55
2023-01-01T03:15:32.432Z,2.55
2023-01-01T03:18:06.833Z,2.45
2023-01-01T03:20:39.625Z,2.00
2023-01-01T03:23:11.267Z,2.03
2023-01-01T03:25:43.775Z,2.60
2023-01-01T03:28:14.722Z,1.95
2023-01-01T03:30:46.659Z,2.53
2023-01-01T03:33:20.365Z,2.10
2023-01-01T03:35:51.709Z,2.47
2023-01-01T03:38:24.681Z,2.20
2023-01-01T03:40:57.899Z,2.88
2023-01-01T03:43:36.733Z,2.50
2023-01-01T03:46:11.009Z,2.10
2023-01-01T03:48:58.544Z,2.08
2023-01-01T03:51:49.160Z,2.42
2023-01-01T03:54:30.323Z,2.33
2023-01-01T03:57:03.801Z,2.60
2023-01-01T03:59:37.873Z,2.88
2023-01-01T04:02:12.583Z,2.80
2023-01-01T04:04:41.074Z,2.97
2023-01-01T04:07:15.043Z,2.88
2023-01-01T04:09:50.370Z,2.22
2023-01-01T04:12:19.892Z,2.60
2023-01-01T04:14:47.677Z,2.60
2023-01-01T04:17:17.377Z,2.50
2023-01-01T04:19:50.063Z,2.40
2023-01-01T04:22:24.463Z,2.55
2023-01-01T04:24:52.262Z,2.83
2023-01-01T04:27:20.253Z,2.20
2023-01-01T04:29:48.453Z,2.28
2023-01-01T04:32:18.006Z,3.35
2023-01-01T04:34:45.940Z,2.75
2023-01-01T04:37:14.283Z,2.33
2023-01-01T04:39:43.798Z,2.17
2023-01-01T04:42:11.690Z,2.47
2023-01-01T04:44:39.800Z,3.15
2023-01-01T04:47:08.112Z,2.65
2023-01-01T04:49:37.684Z,2.53
2023-01-01T04:52:06.084Z,2.20
2023-01-01T04:54:33.990Z,2.83
2023-01-01T04:57:02.036Z,2.95
2023-01-01T04:59:30.888Z,2.45
2023-01-01T05:02:00.673Z,2.78
2023-01-01T05:04:28.764Z,2.75
2023-01-01T05:06:58.076Z,2.53
2023-01-01T05:09:26.043Z,2.83
2023-01-01T05:11:55.820Z,2.60
2023-01-01T05:14:23.770Z,2.42
2023-01-01T05:16:51.858Z,3.75
2023-01-01T05:19:20.072Z,3.10
2023-01-01T05:21:47.978Z,2.33
2023-01-01T05:24:17.122Z,2.47
2023-01-01T05:26:46.312Z,2.92
2023-01-01T05:29:16.954Z,2.42
2023-01-01T05:31:46.124Z,2.83
2023-01-01T05:34:14.579Z,2.65
2023-01-01T05:36:42.399Z,2.63
2023-01-01T05:39:13.155Z,2.47
2023-01-01T05:41:43.424Z,2.60
2023-01-01T05:44:11.878Z,3.40
2023-01-01T05:46:40.267Z,2.25
2023-01-01T05:49:11.374Z,2.35
2023-01-01T05:54:06.784Z,3.45
2023-01-01T05:56:34.690Z,3.00
2023-01-01T05:59:04.606Z,2.40
2023-01-01T06:01:33.777Z,2.65
2023-01-01T06:04:02.001Z,2.10
2023-01-01T06:06:33.507Z,2.58
2023-01-01T06:09:03.215Z,2.58
2023-01-01T06:11:32.179Z,2.65
2023-01-01T06:14:02.151Z,2.53
2023-01-01T06:16:32.983Z,2.72
2023-01-01T06:19:01.238Z,2.70
2023-01-01T06:21:30.586Z,3.15
2023-01-01T06:24:00.657Z,3.63
2023-01-01T06:26:31.400Z,2.67
2023-01-01T06:28:59.981Z,2.72
2023-01-01T06:31:31.199Z,2.70
2023-01-01T06:34:03.759Z,3.15
2023-01-01T06:36:31.957Z,2.50
2023-01-01T06:39:00.361Z,3.00
2023-01-01T06:41:30.813Z,3.30
2023-01-01T06:43:59.935Z,3.05
2023-01-01T06:46:29.829Z,3.03
2023-01-01T06:48:59.528Z,3.00
2023-01-01T06:51:30.812Z,3.47
2023-01-01T06:54:00.423Z,3.03
2023-01-01T06:56:28.648Z,3.13
2023-01-01T06:58:56.470Z,2.90
2023-01-01T07:01:27.073Z,3.22
2023-01-01T07:03:57.157Z,2.80
2023-01-01T07:06:26.086Z,4.03
2023-01-01T07:08:55.926Z,3.28
2023-01-01T07:11:27.205Z,2.83
2023-01-01T07:13:55.092Z,3.10
2023-01-01T07:16:24.354Z,3.47
2023-01-01T07:18:52.907Z,3.15
2023-01-01T07:21:30.061Z,3.47
2023-01-01T07:24:00.580Z,3.10
2023-01-01T07:26:30.716Z,3.10
2023-01-01T07:29:06.413Z,3.30
2023-01-01T07:31:35.912Z,3.45
2023-01-01T07:34:03.781Z,3.20
2023-01-01T07:36:31.501Z,3.75
2023-01-01T07:39:01.275Z,3.35
2023-01-01T07:41:29.110Z,3.20
2023-01-01T07:43:56.915Z,3.67
2023-01-01T07:46:24.997Z,3.42
2023-01-01T07:48:52.783Z,3.10
2023-01-01T07:51:20.481Z,3.38
2023-01-01T07:53:48.540Z,3.35
2023-01-01T07:56:17.809Z,2.83
2023-01-01T07:58:45.564Z,3.30
2023-01-01T08:01:14.636Z,4.43
2023-01-01T08:03:43.120Z,3.35
2023-01-01T08:06:12.405Z,3.60
2023-01-01T08:08:40.761Z,4.32
2023-01-01T08:11:08.860Z,4.07
2023-01-01T08:13:38.213Z,3.92
2023-01-01T08:16:07.167Z,4.43
2023-01-01T08:18:35.157Z,3.72
2023-01-01T08:21:04.364Z,5.05
2023-01-01T08:23:32.620Z,3.15
2023-01-01T08:26:01.993Z,3.30
2023-01-01T08:28:30.792Z,3.25
2023-01-01T08:31:00.683Z,3.38
2023-01-01T08:33:28.691Z,3.15
2023-01-01T08:35:56.649Z,3.30
2023-01-01T08:38:24.791Z,3.33
2023-01-01T08:40:52.787Z,4.03
2023-01-01T08:43:20.681Z,3.45
2023-01-01T08:45:48.698Z,3.15
2023-01-01T08:48:17.927Z,2.95
2023-01-01T08:50:45.764Z,3.35
2023-01-01T08:53:14.049Z,3.25
2023-01-01T08:55:41.900Z,3.70
2023-01-01T08:58:09.663Z,3.28
2023-01-01T09:00:37.661Z,3.10
2023-01-01T09:03:05.576Z,3.63
2023-01-01T09:05:34.835Z,3.47
2023-01-01T09:08:04.156Z,3.55
2023-01-01T09:10:31.922Z,3.50
2023-01-01T09:12:59.736Z,3.58
2023-01-01T09:15:27.580Z,2.72
2023-01-01T09:17:55.354Z,2.95
2023-01-01T09:20:23.329Z,3.80
2023-01-01T09:22:52.674Z,3.13
2023-01-01T09:25:20.888Z,2.88
2023-01-01T09:27:48.676Z,3.20
2023-01-01T09:30:16.730Z,2.78
2023-01-01T09:32:44.380Z,3.20
2023-01-01T09:35:12.441Z,3.40
2023-01-01T09:37:40.408Z,2.92
2023-01-01T09:40:24.827Z,2.90
2023-01-01T09:43:01.639Z,2.45
2023-01-01T09:45:32.572Z,3.13
2023-01-01T09:48:04.770Z,2.47
2023-01-01T09:50:36.419Z,2.67
2023-01-01T09:53:08.163Z,2.78
2023-01-01T09:55:47.233Z,2.60
2023-01-01T09:58:15.426Z,2.70
2023-01-01T10:00:45.598Z,2.58
2023-01-01T10:03:30.802Z,2.78
2023-01-01T10:06:04.066Z,3.05
2023-01-01T10:08:43.907Z,3.25
2023-01-01T10:11:24.187Z,3.47
2023-01-01T10:13:55.241Z,3.08
2023-01-01T10:16:34.618Z,2.40
2023-01-01T10:19:15.688Z,3.05
2023-01-01T10:21:47.572Z,2.97
2023-01-01T10:24:37.707Z,2.78
2023-01-01T10:27:08.081Z,3.28
2023-01-01T10:29:42.166Z,3.05
2023-01-01T10:32:19.887Z,3.35
2023-01-01T10:34:48.651Z,2.45
2023-01-01T10:37:17.271Z,2.50
2023-01-01T10:39:47.431Z,3.45
2023-01-01T10:42:18.485Z,3.08
2023-01-01T10:44:46.436Z,3.28
2023-01-01T10:47:27.101Z,2.75
2023-01-01T10:49:57.456Z,2.88
2023-01-01T10:52:29.172Z,2.38
2023-01-01T10:54:57.021Z,2.80
2023-01-01T10:57:34.646Z,2.33
2023-01-01T11:00:23.486Z,3.00
2023-01-01T11:03:14.352Z,3.22
2023-01-01T11:06:04.153Z,3.33
2023-01-01T11:08:34.730Z,3.00
2023-01-01T11:11:04.264Z,2.72
2023-01-01T11:13:35.832Z,2.50
2023-01-01T11:16:03.791Z,7.20
2023-01-01T11:18:37.148Z,3.47
2023-01-01T11:21:07.161Z,5.95
2023-01-01T11:23:37.459Z,3.40
2023-01-01T11:26:08.135Z,3.40
2023-01-01T11:28:38.179Z,3.03
2023-01-01T11:31:16.015Z,4.20
2023-01-01T11:33:51.149Z,2.78
2023-01-01T11:36:23.774Z,3.08
2023-01-01T11:39:06.848Z,3.67
2023-01-01T11:41:44.264Z,3.83
2023-01-01T11:44:23.511Z,4.15
2023-01-01T11:46:51.524Z,2.58
2023-01-01T11:49:25.425Z,2.60
2023-01-01T11:51:53.577Z,3.03
2023-01-01T11:54:33.569Z,2.72
2023-01-01T11:57:07.677Z,3.28
2023-01-01T11:59:44.746Z,3.33
2023-01-01T12:02:16.209Z,2.75
2023-01-01T12:04:52.181Z,3.05
2023-01-01T12:07:24.986Z,2.95
2023-01-01T12:09:59.331Z,3.25
2023-01-01T12:12:31.886Z,4.05
2023-01-01T12:15:06.456Z,3.28
2023-01-01T12:17:39.616Z,3.30
2023-01-01T12:20:14.438Z,3.60
2023-01-01T12:22:42.957Z,2.80
2023-01-01T12:25:14.746Z,2.95
2023-01-01T12:27:59.164Z,3.13
2023-01-01T12:30:35.572Z,3.28
2023-01-01T12:33:28.776Z,4.13
2023-01-01T12:36:10.892Z,4.60
2023-01-01T12:39:26.874Z,3.63
2023-01-01T12:42:03.359Z,3.88
2023-01-01T12:44:36.535Z,3.20
2023-01-01T12:47:13.563Z,3.90
2023-01-01T12:49:54.519Z,2.97
2023-01-01T12:52:36.644Z,3.55
2023-01-01T12:55:31.969Z,3.47
2023-01-01T12:58:09.714Z,3.63
2023-01-01T13:00:39.784Z,3.35
2023-01-01T13:03:18.568Z,4.10
2023-01-01T13:05:49.370Z,7.07
2023-01-01T13:08:17.259Z,4.85
2023-01-01T13:10:47.944Z,2.97
2023-01-01T13:13:16.146Z,3.38
2023-01-01T13:15:50.227Z,4.63
2023-01-01T13:18:30.753Z,4.95
2023-01-01T13:21:02.866Z,4.65
2023-01-01T13:23:44.633Z,4.22
2023-01-01T13:26:49.663Z,5.90
2023-01-01T13:29:45.110Z,5.93
2023-01-01T13:32:14.665Z,5.47
2023-01-01T13:35:19.701Z,5.75
2023-01-01T13:37:48.523Z,5.38
2023-01-01T13:40:53.054Z,4.80
2023-01-01T13:43:29.370Z,8.50
2023-01-01T13:46:11.773Z,5.03
2023-01-01T13:49:13.543Z,6.00
2023-01-01T13:52:06.826Z,4.90
2023-01-01T13:55:02.300Z,7.25
2023-01-01T13:57:49.345Z,6.85
2023-01-01T14:00:23.228Z,15.25
2023-01-01T14:02:58.886Z,36.15
2023-01-01T14:05:32.900Z,9.43
2023-01-01T14:08:02.071Z,4.18
2023-01-01T14:10:31.126Z,12.77
2023-01-01T14:13:16.568Z,13.00
2023-01-01T14:15:54.120Z,4.50
2023-01-01T14:18:26.745Z,8.63
2023-01-01T14:20:55.200Z,7.07
2023-01-01T14:23:33.090Z,8.45
2023-01-01T14:26:03.494Z,9.57
2023-01-01T14:28:33.762Z,7.45
2023-01-01T14:31:10.677Z,9.38
2023-01-01T14:33:40.386Z,6.28
2023-01-01T14:36:17.653Z,4.72
2023-01-01T14:38:49.225Z,13.48
2023-01-01T14:41:22.425Z,7.07
2023-01-01T14:43:53.495Z,3.70
2023-01-01T14:46:23.417Z,4.18
2023-01-01T14:48:54.539Z,3.55
2023-01-01T14:51:25.067Z,3.60
2023-01-01T14:53:58.086Z,3.58
2023-01-01T14:56:27.869Z,4.30
2023-01-01T14:59:03.295Z,7.03
2023-01-01T15:04:00.803Z,4.93
2023-01-01T15:06:29.492Z,2.97
2023-01-01T15:08:59.075Z,3.83
2023-01-01T15:11:29.302Z,7.90
2023-01-01T15:14:00.171Z,3.28
2023-01-01T15:16:31.089Z,5.18
2023-01-01T15:19:19.529Z,10.07
2023-01-01T15:21:47.659Z,3.70
2023-01-01T15:24:22.306Z,6.40
2023-01-01T15:26:51.928Z,5.57
2023-01-01T15:29:28.442Z,21.05
2023-01-01T15:31:59.036Z,16.27
2023-01-01T15:34:30.636Z,9.27
2023-01-01T15:37:09.009Z,13.13
2023-01-01T15:39:48.610Z,4.07
2023-01-01T15:42:24.815Z,3.53
2023-01-01T15:44:52.818Z,2.10
2023-01-01T15:47:26.534Z,2.83
2023-01-01T15:50:09.149Z,3.60
2023-01-01T15:52:38.085Z,4.07
2023-01-01T15:55:08.779Z,3.75
2023-01-01T15:57:36.642Z,2.95
2023-01-01T16:00:05.407Z,4.82
2023-01-01T16:02:37.263Z,3.88
2023-01-01T16:05:14.705Z,7.32
2023-01-01T16:07:43.623Z,4.20
2023-01-01T16:10:17.813Z,3.88
2023-01-01T16:12:46.363Z,2.65
2023-01-01T16:15:16.613Z,2.65
2023-01-01T16:17:45.786Z,4.70
2023-01-01T16:20:16.781Z,5.65
2023-01-01T16:22:45.206Z,5.32
2023-01-01T16:25:22.755Z,3.92
2023-01-01T16:27:50.642Z,2.90
2023-01-01T16:30:18.634Z,2.17
2023-01-01T16:35:37.778Z,2.33
2023-01-01T16:38:05.612Z,2.90
2023-01-01T16:40:37.996Z,2.08
2023-01-01T16:43:09.797Z,2.88
2023-01-01T16:45:37.838Z,7.57
2023-01-01T16:48:05.935Z,6.03
2023-01-01T16:50:34.245Z,8.10
2023-01-01T16:53:02.045Z,7.00
2023-01-01T16:55:29.874Z,5.57
2023-01-01T16:58:38.191Z,2.17
2023-01-01T17:00:48.692Z,5.40
2023-01-01T17:03:17.631Z,5.30
2023-01-01T17:05:45.587Z,13.32
2023-01-01T17:08:13.340Z,5.15
2023-01-01T17:10:41.727Z,10.02
2023-01-01T17:13:11.087Z,6.15
2023-01-01T17:15:39.008Z,6.43
2023-01-01T17:18:08.225Z,5.28
2023-01-01T17:20:36.218Z,5.70
2023-01-01T17:23:04.183Z,3.83
2023-01-01T17:25:32.505Z,3.17
2023-01-01T17:28:00.344Z,8.70
2023-01-01T17:30:29.640Z,8.18
2023-01-01T17:32:57.990Z,6.63
2023-01-01T17:35:31.406Z,8.40
2023-01-01T17:38:01.464Z,7.35
2023-01-01T17:40:33.540Z,3.60
2023-01-01T17:43:04.869Z,2.05
2023-01-01T17:45:37.367Z,2.95
2023-01-01T17:48:06.020Z,2.20
2023-01-01T17:50:33.950Z,4.45
2023-01-01T17:53:01.695Z,2.70
2023-01-01T17:55:31.172Z,2.08
2023-01-01T17:57:58.937Z,5.13
2023-01-01T18:00:26.843Z,2.88
2023-01-01T18:02:57.142Z,2.80
2023-01-01T18:05:25.061Z,4.03
2023-01-01T18:07:53.100Z,3.75
2023-01-01T18:10:21.580Z,4.15
2023-01-01T18:12:49.329Z,3.13
2023-01-01T18:15:17.041Z,3.70
2023-01-01T18:17:45.423Z,4.65
2023-01-01T18:20:14.930Z,6.88
2023-01-01T18:22:43.387Z,6.45
2023-01-01T18:25:12.036Z,3.10
2023-01-01T18:27:40.071Z,2.72
2023-01-01T18:30:08.975Z,8.10
2023-01-01T18:32:37.446Z,5.20
2023-01-01T18:35:06.514Z,4.63
2023-01-01T18:37:37.787Z,9.55
2023-01-01T18:40:12.278Z,4.93
2023-01-01T18:42:45.695Z,5.27
2023-01-01T18:45:19.315Z,5.18
2023-01-01T18:47:47.992Z,5.28
2023-01-01T18:50:24.002Z,3.70
2023-01-01T18:52:57.630Z,4.47
2023-01-01T18:55:28.021Z,3.65
2023-01-01T18:58:01.044Z,4.70
2023-01-01T19:00:31.488Z,4.50
2023-01-01T19:03:02.283Z,4.07
2023-01-01T19:05:32.212Z,3.75
2023-01-01T19:08:13.389Z,3.58
2023-01-01T19:10:44.447Z,4.50
2023-01-01T19:13:23.120Z,5.38
2023-01-01T19:15:53.403Z,5.28
2023-01-01T19:18:24.261Z,4.20
2023-01-01T19:20:59.557Z,5.15
2023-01-01T19:23:29.580Z,3.80
2023-01-01T19:26:03.031Z,5.28
2023-01-01T19:28:36.742Z,5.53
2023-01-01T19:31:06.212Z,5.57
2023-01-01T19:33:34.162Z,4.80
2023-01-01T19:36:02.630Z,5.22
2023-01-01T19:38:31.934Z,4.68
2023-01-01T19:40:59.652Z,4.25
2023-01-01T19:43:27.936Z,5.82
2023-01-01T19:45:56.007Z,6.53
2023-01-01T19:48:23.984Z,4.82
2023-01-01T19:50:52.823Z,4.82
2023-01-01T19:53:20.678Z,4.93
2023-01-01T19:55:50.227Z,4.70
2023-01-01T19:58:20.388Z,4.25
2023-01-01T20:00:48.358Z,5.05
2023-01-01T20:03:52.333Z,4.72
2023-01-01T20:06:05.006Z,5.68
2023-01-01T20:08:33.387Z,5.80
2023-01-01T20:11:02.802Z,5.05
2023-01-01T20:13:31.265Z,5.82
2023-01-01T20:15:59.289Z,5.40
2023-01-01T20:18:27.033Z,4.40
2023-01-01T20:21:12.931Z,4.20
2023-01-01T20:23:42.361Z,4.50
2023-01-01T20:26:11.534Z,4.43
2023-01-01T20:28:57.388Z,5.30
2023-01-01T20:33:53.231Z,5.20
2023-01-01T20:36:39.115Z,8.52
2023-01-01T20:41:36.012Z,9.25
2023-01-01T20:44:03.837Z,9.02
2023-01-01T20:46:31.901Z,5.65
2023-01-01T20:48:59.921Z,22.42
2023-01-01T20:51:28.820Z,23.92
2023-01-01T20:53:57.037Z,13.88
2023-01-01T20:56:24.952Z,17.33
2023-01-01T20:59:00.099Z,12.63
2023-01-01T21:01:29.902Z,12.70
2023-01-01T21:03:58.345Z,12.10
2023-01-01T21:06:26.314Z,8.32
2023-01-01T21:08:54.056Z,6.20
2023-01-01T21:11:22.976Z,7.13
2023-01-01T21:13:51.096Z,5.85
2023-01-01T21:16:23.572Z,5.63
2023-01-01T21:18:51.985Z,5.47
2023-01-01T21:21:23.907Z,6.72
2023-01-01T21:23:53.674Z,5.13
2023-01-01T21:26:26.790Z,5.70
2023-01-01T21:28:54.974Z,5.72
2023-01-01T21:31:24.418Z,6.13
2023-01-01T21:33:53.214Z,5.97
2023-01-01T21:36:23.806Z,7.13
2023-01-01T21:38:53.158Z,5.97
2023-01-01T21:41:24.060Z,4.75
2023-01-01T21:43:55.933Z,5.60
2023-01-01T21:46:33.739Z,5.43
2023-01-01T21:49:05.224Z,5.20
2023-01-01T21:51:34.420Z,5.43
2023-01-01T21:54:16.385Z,5.38
2023-01-01T21:56:47.251Z,5.45
2023-01-01T21:59:29.889Z,5.32
2023-01-01T22:02:31.143Z,6.82
2023-01-01T22:05:02.378Z,6.68
2023-01-01T22:10:24.551Z,7.50
2023-01-01T22:12:58.284Z,17.05
2023-01-01T22:15:41.275Z,16.80
2023-01-01T22:18:23.270Z,20.80
2023-01-01T22:20:52.344Z,6.93
2023-01-01T22:23:39.470Z,16.13
2023-01-01T22:26:17.277Z,8.50
2023-01-01T22:28:46.294Z,7.15
2023-01-01T22:31:20.208Z,4.85
2023-01-01T22:33:52.554Z,6.18
2023-01-01T22:36:24.269Z,4.70
2023-01-01T22:38:54.433Z,5.68
2023-01-01T22:41:22.345Z,7.43
2023-01-01T22:43:50.671Z,5.28
2023-01-01T22:46:24.221Z,5.47
2023-01-01T22:48:57.976Z,6.00
2023-01-01T22:51:29.479Z,5.38
2023-01-01T22:53:57.800Z,5.93
2023-01-01T22:56:25.862Z,5.97
2023-01-01T22:58:57.192Z,4.82
2023-01-01T23:01:26.267Z,4.72
2023-01-01T23:03:55.640Z,4.45
2023-01-01T23:06:23.858Z,5.00
2023-01-01T23:08:53.776Z,4.43
2023-01-01T23:11:22.044Z,5.55
2023-01-01T23:14:09.676Z,4.88
2023-01-01T23:16:38.195Z,5.15
2023-01-01T23:19:07.668Z,4.13
2023-01-01T23:21:37.790Z,4.43
2023-01-01T23:24:09.847Z,5.20
2023-01-01T23:26:39.108Z,4.57
2023-01-01T23:29:08.548Z,4.07
2023-01-01T23:31:36.937Z,4.93
2023-01-01T23:34:05.863Z,4.07
2023-01-01T23:36:35.717Z,3.90
2023-01-01T23:39:03.610Z,4.85
2023-01-01T23:41:32.607Z,4.43
2023-01-01T23:44:00.427Z,4.80
2023-01-01T23:46:28.396Z,5.82
2023-01-01T23:48:57.231Z,3.78
2023-01-01T23:51:25.131Z,3.38
2023-01-01T23:53:54.501Z,3.05
2023-01-01T23:56:23.542Z,3.58
2023-01-01T23:58:51.359Z,3.42
